createdAt,value
2023-05-20T00:00:51.576Z,15.00
2023-05-20T00:04:26.388Z,14.90
2023-05-20T00:07:28.473Z,15.00
2023-05-20T00:10:30.426Z,15.00
2023-05-20T00:13:32.287Z,14.90
2023-05-20T00:16:34.212Z,14.90
2023-05-20T00:19:39.501Z,14.80
2023-05-20T00:22:41.618Z,14.80
2023-05-20T00:25:51.077Z,14.70
2023-05-20T00:28:52.883Z,14.70
2023-05-20T00:31:54.981Z,14.70
2023-05-20T00:34:58.326Z,14.60
2023-05-20T00:38:01.129Z,14.60
2023-05-20T00:41:03.275Z,14.60
2023-05-20T00:44:05.116Z,14.50
2023-05-20T00:47:07.230Z,14.40
2023-05-20T00:50:10.764Z,14.30
2023-05-20T00:53:13.032Z,14.30
2023-05-20T00:56:15.385Z,14.30
2023-05-20T00:59:17.324Z,14.30
2023-05-20T01:02:19.645Z,14.20
2023-05-20T01:05:23.816Z,14.10
2023-05-20T01:08:26.859Z,14.00
2023-05-20T01:11:37.848Z,13.90
2023-05-20T01:14:51.340Z,13.80
2023-05-20T01:18:01.386Z,13.80
2023-05-20T01:21:06.515Z,13.70
2023-05-20T01:24:08.747Z,13.70
2023-05-20T01:27:14.302Z,13.70
2023-05-20T01:30:16.933Z,13.70
2023-05-20T01:33:24.960Z,13.80
2023-05-20T01:36:27.772Z,13.80
2023-05-20T01:39:33.549Z,13.80
2023-05-20T01:42:36.901Z,13.70
2023-05-20T01:45:42.213Z,13.70
2023-05-20T01:48:44.121Z,13.70
2023-05-20T01:51:49.082Z,13.70
2023-05-20T01:54:53.723Z,13.70
2023-05-20T01:57:56.286Z,13.60
2023-05-20T02:00:58.448Z,13.50
2023-05-20T02:04:01.051Z,13.50
2023-05-20T02:07:03.329Z,13.40
2023-05-20T02:10:10.697Z,13.30
2023-05-20T02:13:12.774Z,13.30
2023-05-20T02:16:15.485Z,13.30
2023-05-20T02:19:23.919Z,13.30
2023-05-20T02:22:26.111Z,13.30
2023-05-20T02:25:27.871Z,13.30
2023-05-20T02:28:30.571Z,13.30
2023-05-20T02:31:32.547Z,13.30
2023-05-20T02:34:36.065Z,13.30
2023-05-20T02:37:39.516Z,13.20
2023-05-20T02:40:45.363Z,13.20
2023-05-20T02:43:47.502Z,13.00
2023-05-20T02:46:49.568Z,13.00
2023-05-20T02:49:51.440Z,13.00
2023-05-20T02:52:54.044Z,12.90
2023-05-20T02:55:55.951Z,12.90
2023-05-20T02:58:59.499Z,12.80
2023-05-20T03:02:01.603Z,13.00
2023-05-20T03:05:06.092Z,12.90
2023-05-20T03:08:11.931Z,12.80
2023-05-20T03:11:13.726Z,12.80
2023-05-20T03:14:15.811Z,12.70
2023-05-20T03:17:18.539Z,12.70
2023-05-20T03:20:20.816Z,12.60
2023-05-20T03:23:23.459Z,12.70
2023-05-20T03:26:25.820Z,12.70
2023-05-20T03:29:27.744Z,12.50
2023-05-20T03:32:29.552Z,12.50
2023-05-20T03:35:31.783Z,12.40
2023-05-20T03:38:42.852Z,12.40
2023-05-20T03:41:44.683Z,12.40
2023-05-20T03:44:46.720Z,12.50
2023-05-20T03:47:49.461Z,12.50
2023-05-20T03:50:51.276Z,12.40
2023-05-20T03:53:57.721Z,12.30
2023-05-20T03:57:03.087Z,12.30
2023-05-20T04:00:12.019Z,12.30
2023-05-20T04:03:13.964Z,12.30
2023-05-20T04:06:16.144Z,12.30
2023-05-20T04:09:17.964Z,12.30
2023-05-20T04:12:25.560Z,12.30
2023-05-20T04:15:29.780Z,12.40
2023-05-20T04:18:32.716Z,12.50
2023-05-20T04:21:34.560Z,12.40
2023-05-20T04:24:38.892Z,12.50
2023-05-20T04:27:40.733Z,12.50
2023-05-20T04:30:45.898Z,12.40
2023-05-20T04:33:47.971Z,12.20
2023-05-20T04:36:50.080Z,12.30
2023-05-20T04:39:52.644Z,12.20
2023-05-20T04:42:57.094Z,12.20
2023-05-20T04:46:01.442Z,12.20
2023-05-20T04:49:04.631Z,12.30
2023-05-20T04:52:06.799Z,12.30
2023-05-20T04:55:16.386Z,12.20
2023-05-20T04:58:18.187Z,12.30
2023-05-20T05:01:20.954Z,12.30
2023-05-20T05:04:23.289Z,12.30
2023-05-20T05:07:28.340Z,12.50
2023-05-20T05:10:30.399Z,12.50
2023-05-20T05:13:36.976Z,12.50
2023-05-20T05:16:38.840Z,12.50
2023-05-20T05:19:40.918Z,12.60
2023-05-20T05:22:43.195Z,12.70
2023-05-20T05:25:45.337Z,12.70
2023-05-20T05:28:47.177Z,12.70
2023-05-20T05:31:49.191Z,12.80
2023-05-20T05:34:51.085Z,12.90
2023-05-20T05:37:54.593Z,12.90
2023-05-20T05:40:56.951Z,12.90
2023-05-20T05:43:59.688Z,13.00
2023-05-20T05:47:01.575Z,13.00
2023-05-20T05:50:05.258Z,13.00
2023-05-20T05:53:07.050Z,13.20
2023-05-20T05:56:09.923Z,13.20
2023-05-20T05:59:12.000Z,13.30
2023-05-20T06:02:14.721Z,13.30
2023-05-20T06:05:29.331Z,13.50
2023-05-20T06:08:32.617Z,13.60
2023-05-20T06:11:34.536Z,13.70
2023-05-20T06:14:36.411Z,13.80
2023-05-20T06:17:38.251Z,13.90
2023-05-20T06:20:41.019Z,14.00
2023-05-20T06:23:43.098Z,14.00
2023-05-20T06:26:50.703Z,14.10
2023-05-20T06:29:52.730Z,14.20
2023-05-20T06:32:54.717Z,14.20
2023-05-20T06:35:58.345Z,14.30
2023-05-20T06:39:01.189Z,14.30
2023-05-20T06:42:03.277Z,14.40
2023-05-20T06:45:06.521Z,14.40
2023-05-20T06:48:08.508Z,14.50
2023-05-20T06:51:10.970Z,14.60
2023-05-20T06:54:12.917Z,14.60
2023-05-20T06:57:15.544Z,14.70
2023-05-20T07:00:17.643Z,14.80
2023-05-20T07:03:21.255Z,14.90
2023-05-20T07:06:31.688Z,15.00
2023-05-20T07:09:33.563Z,14.90
2023-05-20T07:12:36.790Z,15.00
2023-05-20T07:15:38.904Z,15.00
2023-05-20T07:18:41.103Z,15.10
2023-05-20T07:21:44.728Z,15.10
2023-05-20T07:24:46.509Z,15.30
2023-05-20T07:27:49.228Z,15.30
2023-05-20T07:30:51.201Z,15.50
2023-05-20T07:33:53.264Z,15.50
2023-05-20T07:36:55.336Z,15.60
2023-05-20T07:39:57.948Z,15.60
2023-05-20T07:43:00.083Z,15.70
2023-05-20T07:46:02.929Z,15.90
2023-05-20T07:49:05.458Z,15.90
2023-05-20T07:52:07.608Z,15.90
2023-05-20T07:55:09.415Z,16.00
2023-05-20T07:58:13.575Z,16.00
2023-05-20T08:01:15.521Z,16.10
2023-05-20T08:04:17.481Z,16.10
2023-05-20T08:07:21.268Z,16.20
2023-05-20T08:10:23.192Z,16.30
2023-05-20T08:13:25.314Z,16.30
2023-05-20T08:16:28.087Z,16.40
2023-05-20T08:19:30.208Z,16.30
2023-05-20T08:22:32.884Z,16.30
2023-05-20T08:25:34.967Z,16.30
2023-05-20T08:28:39.977Z,16.40
2023-05-20T08:31:42.055Z,16.40
2023-05-20T08:34:44.778Z,16.50
2023-05-20T08:37:46.580Z,16.70
2023-05-20T08:41:04.025Z,16.80
2023-05-20T08:44:08.149Z,16.90
2023-05-20T08:47:11.296Z,17.10
2023-05-20T08:50:14.464Z,17.10
2023-05-20T08:53:18.451Z,17.20
2023-05-20T08:56:21.928Z,17.20
2023-05-20T08:59:23.943Z,17.30
2023-05-20T09:02:26.055Z,17.40
2023-05-20T09:05:30.780Z,17.40
2023-05-20T09:08:34.191Z,17.30
2023-05-20T09:11:36.191Z,17.30
2023-05-20T09:14:38.109Z,17.40
2023-05-20T09:17:42.411Z,17.40
2023-05-20T09:20:47.979Z,17.40
2023-05-20T09:23:52.416Z,17.60
2023-05-20T09:26:54.530Z,17.70
2023-05-20T09:29:56.424Z,17.80
2023-05-20T09:32:59.960Z,17.90
2023-05-20T09:36:09.594Z,17.80
2023-05-20T09:39:19.128Z,18.00
2023-05-20T09:42:36.079Z,18.00
2023-05-20T09:45:38.853Z,18.10
2023-05-20T09:48:41.822Z,18.10
2023-05-20T09:51:45.086Z,18.20
2023-05-20T09:54:49.277Z,18.30
2023-05-20T09:57:51.975Z,18.40
2023-05-20T10:00:58.866Z,18.50
2023-05-20T10:04:04.996Z,18.50
2023-05-20T10:07:41.368Z,18.50
2023-05-20T10:11:12.945Z,18.50
2023-05-20T10:14:17.758Z,18.50
2023-05-20T10:20:48.664Z,18.60
2023-05-20T10:23:51.913Z,18.60
2023-05-20T10:27:01.139Z,18.60
2023-05-20T10:30:03.940Z,18.60
2023-05-20T10:33:07.190Z,18.50
2023-05-20T10:36:09.239Z,18.40
2023-05-20T10:39:19.047Z,18.50
2023-05-20T10:42:29.522Z,18.50
2023-05-20T10:45:32.932Z,18.80
2023-05-20T10:48:34.936Z,18.80
2023-05-20T10:51:37.299Z,18.90
2023-05-20T10:54:48.739Z,18.90
2023-05-20T10:57:57.572Z,19.00
2023-05-20T11:00:59.611Z,19.10
2023-05-20T11:04:04.390Z,19.10
2023-05-20T11:07:07.643Z,19.20
2023-05-20T11:10:11.164Z,19.20
2023-05-20T11:13:16.737Z,19.20
2023-05-20T11:16:20.568Z,18.90
2023-05-20T11:19:23.323Z,18.90
2023-05-20T11:22:26.249Z,18.90
2023-05-20T11:25:28.352Z,19.00
2023-05-20T11:28:31.055Z,19.00
2023-05-20T11:31:33.180Z,19.10
2023-05-20T11:34:37.017Z,19.20
2023-05-20T11:37:38.841Z,19.10
2023-05-20T11:40:56.272Z,19.20
2023-05-20T11:43:59.456Z,19.20
2023-05-20T11:47:02.474Z,19.20
2023-05-20T11:50:04.899Z,19.30
2023-05-20T11:53:21.067Z,19.20
2023-05-20T11:56:23.318Z,19.30
2023-05-20T11:59:25.467Z,19.30
2023-05-20T12:02:27.488Z,19.40
2023-05-20T12:05:31.872Z,19.50
2023-05-20T12:08:36.368Z,19.50
2023-05-20T12:11:41.110Z,19.60
2023-05-20T12:14:43.279Z,19.80
2023-05-20T12:17:53.147Z,19.90
2023-05-20T12:20:55.045Z,19.90
2023-05-20T12:24:01.041Z,19.90
2023-05-20T12:27:04.174Z,20.00
2023-05-20T12:30:07.455Z,19.90
2023-05-20T12:33:09.481Z,19.80
2023-05-20T12:36:11.390Z,19.80
2023-05-20T12:39:17.699Z,19.90
2023-05-20T12:42:19.529Z,19.90
2023-05-20T12:45:21.356Z,19.90
2023-05-20T12:48:23.270Z,19.90
2023-05-20T12:51:25.406Z,19.80
2023-05-20T12:54:28.525Z,19.90
2023-05-20T12:57:30.367Z,19.80
2023-05-20T13:00:33.180Z,20.00
2023-05-20T13:03:35.363Z,20.10
2023-05-20T13:06:39.290Z,20.10
2023-05-20T13:09:41.293Z,20.10
2023-05-20T13:12:46.127Z,20.10
2023-05-20T13:15:51.733Z,20.20
2023-05-20T13:18:55.248Z,20.20
2023-05-20T13:21:57.215Z,20.20
2023-05-20T13:25:00.032Z,20.10
2023-05-20T13:28:05.945Z,20.10
2023-05-20T13:31:13.236Z,20.10
2023-05-20T13:34:15.855Z,20.20
2023-05-20T13:37:17.696Z,20.20
2023-05-20T13:40:19.756Z,20.20
2023-05-20T13:43:23.202Z,20.00
2023-05-20T13:46:24.994Z,20.00
2023-05-20T13:49:27.156Z,19.90
2023-05-20T13:52:29.166Z,19.90
2023-05-20T13:55:31.918Z,19.90
2023-05-20T13:58:33.709Z,19.90
2023-05-20T14:01:36.190Z,19.80
2023-05-20T14:04:40.992Z,19.80
2023-05-20T14:07:43.160Z,19.80
2023-05-20T14:10:45.433Z,19.80
2023-05-20T14:13:51.340Z,19.80
2023-05-20T14:16:53.293Z,19.80
2023-05-20T14:19:59.946Z,19.80
2023-05-20T14:23:01.986Z,19.80
2023-05-20T14:26:04.742Z,19.90
2023-05-20T14:29:06.599Z,19.80
2023-05-20T14:32:09.159Z,19.90
2023-05-20T14:35:10.996Z,19.90
2023-05-20T14:38:14.474Z,19.90
2023-05-20T14:41:16.615Z,19.90
2023-05-20T14:44:18.512Z,20.00
2023-05-20T14:47:22.380Z,19.80
2023-05-20T14:50:24.354Z,19.90
2023-05-20T14:53:26.226Z,19.90
2023-05-20T14:56:28.129Z,19.80
2023-05-20T14:59:29.893Z,19.80
2023-05-20T15:02:31.993Z,19.80
2023-05-20T15:05:34.723Z,19.80
2023-05-20T15:08:37.759Z,19.60
2023-05-20T15:11:39.639Z,19.60
2023-05-20T15:14:42.481Z,19.60
2023-05-20T15:17:44.312Z,19.60
2023-05-20T15:20:46.236Z,19.50
2023-05-20T15:23:48.259Z,19.60
2023-05-20T15:26:50.230Z,19.60
2023-05-20T15:29:52.144Z,19.60
2023-05-20T15:32:54.016Z,19.60
2023-05-20T15:35:56.138Z,19.70
2023-05-20T15:38:58.356Z,19.70
2023-05-20T15:42:02.186Z,19.70
2023-05-20T15:45:05.078Z,19.70
2023-05-20T15:48:08.209Z,19.50
2023-05-20T15:51:10.189Z,19.50
2023-05-20T15:54:11.985Z,19.50
2023-05-20T15:57:14.535Z,19.50
2023-05-20T16:00:18.688Z,19.40
2023-05-20T16:03:20.922Z,19.40
2023-05-20T16:06:23.447Z,19.40
2023-05-20T16:09:25.345Z,19.40
2023-05-20T16:12:27.161Z,19.40
2023-05-20T16:15:35.571Z,19.40
2023-05-20T16:18:37.360Z,19.40
2023-05-20T16:21:40.620Z,19.30
2023-05-20T16:24:42.429Z,19.30
2023-05-20T16:27:44.253Z,19.30
2023-05-20T16:30:46.332Z,19.20
2023-05-20T16:33:48.336Z,19.20
2023-05-20T16:36:50.411Z,19.20
2023-05-20T16:39:52.236Z,19.20
2023-05-20T16:42:54.215Z,19.20
2023-05-20T16:45:56.327Z,19.10
2023-05-20T16:48:58.836Z,19.10
2023-05-20T16:52:01.169Z,19.00
2023-05-20T16:55:04.780Z,19.00
2023-05-20T16:58:06.730Z,19.00
2023-05-20T17:01:08.777Z,19.00
2023-05-20T17:04:11.152Z,19.00
2023-05-20T17:07:44.909Z,18.90
2023-05-20T17:10:48.547Z,18.90
2023-05-20T17:13:50.453Z,18.90
2023-05-20T17:16:53.077Z,19.00
2023-05-20T17:19:55.109Z,19.00
2023-05-20T17:22:59.611Z,18.90
2023-05-20T17:26:01.604Z,19.00
2023-05-20T17:29:03.624Z,19.00
2023-05-20T17:32:05.925Z,19.00
2023-05-20T17:35:08.794Z,18.90
2023-05-20T17:38:10.708Z,18.90
2023-05-20T17:41:13.397Z,19.00
2023-05-20T17:44:15.469Z,19.00
2023-05-20T17:47:17.488Z,19.00
2023-05-20T17:50:19.385Z,19.00
2023-05-20T17:53:23.976Z,18.90
2023-05-20T17:56:26.636Z,19.00
2023-05-20T17:59:30.968Z,19.00
2023-05-20T18:02:32.962Z,18.90
2023-05-20T18:05:36.987Z,18.90
2023-05-20T18:08:39.456Z,18.90
2023-05-20T18:11:45.933Z,18.90
2023-05-20T18:14:48.017Z,18.80
2023-05-20T18:17:49.993Z,18.80
2023-05-20T18:20:52.619Z,18.70
2023-05-20T18:23:54.862Z,18.70
2023-05-20T18:26:57.494Z,18.70
2023-05-20T18:30:00.198Z,18.70
2023-05-20T18:33:02.607Z,18.70
2023-05-20T18:36:06.857Z,18.60
2023-05-20T18:39:08.879Z,18.60
2023-05-20T18:42:11.121Z,18.60
2023-05-20T18:45:13.377Z,18.50
2023-05-20T18:48:25.706Z,18.50
2023-05-20T18:51:33.119Z,18.50
2023-05-20T18:54:35.939Z,18.50
2023-05-20T18:57:38.359Z,18.40
2023-05-20T19:00:40.867Z,18.50
2023-05-20T19:03:44.935Z,18.50
2023-05-20T19:06:55.266Z,18.50
2023-05-20T19:09:57.189Z,18.40
2023-05-20T19:12:59.253Z,18.30
2023-05-20T19:16:01.619Z,18.30
2023-05-20T19:19:03.585Z,18.30
2023-05-20T19:22:06.501Z,18.30
2023-05-20T19:25:11.813Z,18.30
2023-05-20T19:28:13.775Z,18.20
2023-05-20T19:31:22.310Z,18.30
2023-05-20T19:34:25.075Z,18.30
2023-05-20T19:37:27.147Z,18.20
2023-05-20T19:40:29.091Z,18.20
2023-05-20T19:43:31.082Z,18.20
2023-05-20T19:46:33.074Z,18.10
2023-05-20T19:49:36.156Z,18.20
2023-05-20T19:52:38.024Z,18.10
2023-05-20T19:55:40.045Z,18.00
2023-05-20T19:58:42.004Z,18.00
2023-05-20T20:01:44.158Z,18.00
2023-05-20T20:04:47.789Z,18.00
2023-05-20T20:07:51.931Z,17.90
2023-05-20T20:10:53.735Z,17.90
2023-05-20T20:13:59.052Z,17.90
2023-05-20T20:17:01.258Z,17.80
2023-05-20T20:20:07.301Z,17.80
2023-05-20T20:23:12.739Z,17.80
2023-05-20T20:26:14.742Z,17.80
2023-05-20T20:29:16.750Z,17.80
2023-05-20T20:32:20.270Z,17.80
2023-05-20T20:35:22.712Z,17.80
2023-05-20T20:38:27.771Z,17.80
2023-05-20T20:41:29.892Z,17.70
2023-05-20T20:44:33.340Z,17.70
2023-05-20T20:47:35.327Z,17.60
2023-05-20T20:50:38.805Z,17.60
2023-05-20T20:53:43.534Z,17.60
2023-05-20T20:56:47.894Z,17.50
2023-05-20T20:59:51.366Z,17.50
2023-05-20T21:02:55.195Z,17.40
2023-05-20T21:05:58.333Z,17.40
2023-05-20T21:09:02.190Z,17.30
2023-05-20T21:12:06.774Z,17.30
2023-05-20T21:15:11.539Z,17.30
2023-05-20T21:18:14.081Z,17.30
2023-05-20T21:21:20.485Z,17.10
2023-05-20T21:24:22.401Z,17.10
2023-05-20T21:27:24.225Z,17.00
2023-05-20T21:30:26.122Z,17.00
2023-05-20T21:33:28.790Z,16.90
2023-05-20T21:36:30.689Z,17.00
2023-05-20T21:39:35.129Z,17.00
2023-05-20T21:42:37.011Z,16.80
2023-05-20T21:45:41.180Z,16.90
2023-05-20T21:48:42.971Z,16.90
2023-05-20T21:51:44.896Z,16.90
2023-05-20T21:54:46.710Z,16.80
2023-05-20T21:57:48.744Z,16.70
2023-05-20T22:00:50.746Z,16.70
2023-05-20T22:03:54.203Z,16.60
2023-05-20T22:07:02.602Z,16.50
2023-05-20T22:10:05.251Z,16.50
2023-05-20T22:13:07.079Z,16.50
2023-05-20T22:16:10.305Z,16.50
2023-05-20T22:19:15.791Z,16.50
2023-05-20T22:22:18.532Z,16.50
2023-05-20T22:25:20.308Z,16.40
2023-05-20T22:28:29.755Z,16.40
2023-05-20T22:31:31.725Z,16.30
2023-05-20T22:34:33.649Z,16.20
2023-05-20T22:37:35.507Z,16.20
2023-05-20T22:40:39.976Z,16.20
2023-05-20T22:43:41.887Z,16.10
2023-05-20T22:46:43.917Z,16.10
2023-05-20T22:49:45.727Z,16.10
2023-05-20T22:52:48.341Z,16.10
2023-05-20T22:55:50.242Z,16.10
2023-05-20T22:58:54.153Z,16.10
2023-05-20T23:01:56.268Z,16.00
2023-05-20T23:04:59.498Z,16.00
2023-05-20T23:08:01.968Z,15.90
2023-05-20T23:11:08.513Z,15.90
2023-05-20T23:14:10.588Z,15.80
2023-05-20T23:17:12.421Z,15.80
2023-05-20T23:20:18.980Z,15.80
2023-05-20T23:23:31.279Z,15.70
2023-05-20T23:26:34.529Z,15.60
2023-05-20T23:29:36.547Z,15.70
2023-05-20T23:32:38.537Z,15.60
2023-05-20T23:35:40.624Z,15.60
2023-05-20T23:38:42.421Z,15.60
2023-05-20T23:41:44.310Z,15.50
2023-05-20T23:44:46.154Z,15.50
2023-05-20T23:47:48.591Z,15.50
2023-05-20T23:50:50.516Z,15.50
2023-05-20T23:53:52.353Z,15.40
2023-05-20T23:56:55.645Z,15.40
2023-05-20T23:59:57.521Z,15.30
